Terminal Aerodrome Forecast
Issued by NWS

Home | Current Version | Previous Version | Text Only | Print | Product List | Glossary On
Versions: 1 2 3 4 5 6 7 8 9 10 11 12
444
FTUS42 KMLB 281120
TAFSFB
TAF
KSFB 281120Z 2812/2912 22003KT P6SM FEW025
     FM281400 24005KT P6SM SCT025 SCT250
     FM281900 26008KT P6SM VCTS SCT040CB BKN250
     FM290000 24005KT P6SM SCT080 BKN250=

USA.gov is the U.S. government's official web portal to all federal, state and local government web resources and services.